Fort Wayne (FWA/KFWA)

Map

Destinations

Information

Location
Fort Wayne, IN
Local Time
19:24 / 7:24 pm
GMT Time
00:24 / 12:24 am
Gates
Unassigned
No FAA reported delays
METAR KFWA 222354Z 17006KT 10SM FEW024 OVC030 15/12 A2976 RMK AO2 SLP077 T01500117 10172 20150 55003
TAF KFWA 222337Z 2300/2324 20007KT P6SM OVC025 FM231000 23089KT P6SM BKN015 FM231100 23009KT P6SM BKN008 FM231800 25005KT P6SM BKN005 FM232000 04005KT P6SM OVC045
  • No charts available